sensor_id;sensor_type;location;lat;lon;timestamp;P1;durP1;ratioP1;P2;durP2;ratioP2
41293;SDS011;27037;52.010;4.446;2022-07-03T00:00:23;5.65;;;3.00;;
41293;SDS011;27037;52.010;4.446;2022-07-03T00:02:48;6.00;;;2.88;;
41293;SDS011;27037;52.010;4.446;2022-07-03T00:05:14;5.97;;;2.60;;
41293;SDS011;27037;52.010;4.446;2022-07-03T00:07:40;5.80;;;2.90;;
41293;SDS011;27037;52.010;4.446;2022-07-03T00:10:05;4.85;;;2.92;;
41293;SDS011;27037;52.010;4.446;2022-07-03T00:12:31;4.90;;;2.60;;
41293;SDS011;27037;52.010;4.446;2022-07-03T00:14:57;5.25;;;2.28;;
41293;SDS011;27037;52.010;4.446;2022-07-03T00:17:23;5.85;;;2.58;;
41293;SDS011;27037;52.010;4.446;2022-07-03T00:19:48;5.78;;;2.50;;
41293;SDS011;27037;52.010;4.446;2022-07-03T00:22:14;8.93;;;2.70;;
41293;SDS011;27037;52.010;4.446;2022-07-03T00:24:44;5.40;;;2.30;;
41293;SDS011;27037;52.010;4.446;2022-07-03T00:27:15;4.93;;;2.53;;
41293;SDS011;27037;52.010;4.446;2022-07-03T00:29:42;4.72;;;2.10;;
41293;SDS011;27037;52.010;4.446;2022-07-03T00:32:10;4.07;;;2.20;;
41293;SDS011;27037;52.010;4.446;2022-07-03T00:34:37;5.07;;;2.00;;
41293;SDS011;27037;52.010;4.446;2022-07-03T00:37:05;5.07;;;1.90;;
41293;SDS011;27037;52.010;4.446;2022-07-03T00:39:34;2.60;;;1.65;;
41293;SDS011;27037;52.010;4.446;2022-07-03T00:42:03;3.78;;;1.80;;
41293;SDS011;27037;52.010;4.446;2022-07-03T00:44:30;3.53;;;1.70;;
41293;SDS011;27037;52.010;4.446;2022-07-03T00:46:58;5.00;;;1.63;;
41293;SDS011;27037;52.010;4.446;2022-07-03T00:49:27;3.47;;;1.50;;
41293;SDS011;27037;52.010;4.446;2022-07-03T00:51:54;2.58;;;1.40;;
41293;SDS011;27037;52.010;4.446;2022-07-03T00:54:22;3.47;;;1.40;;
41293;SDS011;27037;52.010;4.446;2022-07-03T00:56:52;1.90;;;1.38;;
41293;SDS011;27037;52.010;4.446;2022-07-03T00:59:19;3.90;;;1.27;;
41293;SDS011;27037;52.010;4.446;2022-07-03T01:01:45;3.15;;;1.20;;
41293;SDS011;27037;52.010;4.446;2022-07-03T01:06:58;2.72;;;1.20;;
41293;SDS011;27037;52.010;4.446;2022-07-03T01:10:11;4.63;;;1.20;;
41293;SDS011;27037;52.010;4.446;2022-07-03T01:12:26;4.32;;;1.30;;
41293;SDS011;27037;52.010;4.446;2022-07-03T01:15:14;3.03;;;1.20;;
41293;SDS011;27037;52.010;4.446;2022-07-03T01:17:47;4.72;;;1.42;;
41293;SDS011;27037;52.010;4.446;2022-07-03T01:20:23;3.13;;;1.25;;
41293;SDS011;27037;52.010;4.446;2022-07-03T01:22:58;3.35;;;1.10;;
41293;SDS011;27037;52.010;4.446;2022-07-03T01:25:25;3.63;;;1.10;;
41293;SDS011;27037;52.010;4.446;2022-07-03T01:30:41;2.70;;;1.13;;
41293;SDS011;27037;52.010;4.446;2022-07-03T01:33:10;4.30;;;1.20;;
41293;SDS011;27037;52.010;4.446;2022-07-03T01:35:41;2.90;;;1.08;;
41293;SDS011;27037;52.010;4.446;2022-07-03T01:38:17;3.22;;;1.05;;
41293;SDS011;27037;52.010;4.446;2022-07-03T01:40:46;2.75;;;1.00;;
41293;SDS011;27037;52.010;4.446;2022-07-03T01:43:15;4.93;;;1.10;;
41293;SDS011;27037;52.010;4.446;2022-07-03T01:45:44;5.93;;;1.25;;
41293;SDS011;27037;52.010;4.446;2022-07-03T01:48:13;2.67;;;1.00;;
41293;SDS011;27037;52.010;4.446;2022-07-03T01:50:40;2.72;;;1.05;;
41293;SDS011;27037;52.010;4.446;2022-07-03T01:53:07;2.10;;;0.85;;
41293;SDS011;27037;52.010;4.446;2022-07-03T01:55:34;3.95;;;1.00;;
41293;SDS011;27037;52.010;4.446;2022-07-03T01:58:03;4.53;;;0.90;;
41293;SDS011;27037;52.010;4.446;2022-07-03T02:00:29;4.72;;;1.10;;
41293;SDS011;27037;52.010;4.446;2022-07-03T02:08:33;2.47;;;0.90;;
41293;SDS011;27037;52.010;4.446;2022-07-03T02:11:23;4.78;;;1.00;;
41293;SDS011;27037;52.010;4.446;2022-07-03T02:16:47;4.57;;;1.35;;
41293;SDS011;27037;52.010;4.446;2022-07-03T02:22:19;3.45;;;1.17;;
41293;SDS011;27037;52.010;4.446;2022-07-03T02:24:46;4.47;;;1.20;;
41293;SDS011;27037;52.010;4.446;2022-07-03T02:27:24;4.80;;;0.98;;
41293;SDS011;27037;52.010;4.446;2022-07-03T02:29:59;7.25;;;1.40;;
41293;SDS011;27037;52.010;4.446;2022-07-03T02:32:28;7.43;;;1.15;;
41293;SDS011;27037;52.010;4.446;2022-07-03T02:35:00;6.50;;;1.13;;
41293;SDS011;27037;52.010;4.446;2022-07-03T02:37:31;4.30;;;1.00;;
41293;SDS011;27037;52.010;4.446;2022-07-03T02:40:04;3.72;;;1.13;;
41293;SDS011;27037;52.010;4.446;2022-07-03T02:42:39;6.82;;;1.30;;
41293;SDS011;27037;52.010;4.446;2022-07-03T02:45:12;2.97;;;1.08;;
41293;SDS011;27037;52.010;4.446;2022-07-03T02:47:48;7.03;;;1.38;;
41293;SDS011;27037;52.010;4.446;2022-07-03T02:50:27;6.13;;;1.20;;
41293;SDS011;27037;52.010;4.446;2022-07-03T02:56:01;5.40;;;1.20;;
41293;SDS011;27037;52.010;4.446;2022-07-03T02:58:58;6.25;;;1.27;;
41293;SDS011;27037;52.010;4.446;2022-07-03T03:01:38;4.70;;;1.25;;
41293;SDS011;27037;52.010;4.446;2022-07-03T03:04:30;5.95;;;1.17;;
41293;SDS011;27037;52.010;4.446;2022-07-03T03:07:01;4.47;;;1.20;;
41293;SDS011;27037;52.010;4.446;2022-07-03T03:09:40;3.35;;;1.20;;
41293;SDS011;27037;52.010;4.446;2022-07-03T03:12:08;3.10;;;1.23;;
41293;SDS011;27037;52.010;4.446;2022-07-03T03:14:38;5.45;;;1.40;;
41293;SDS011;27037;52.010;4.446;2022-07-03T03:17:06;7.38;;;1.33;;
41293;SDS011;27037;52.010;4.446;2022-07-03T03:19:36;5.18;;;1.10;;
41293;SDS011;27037;52.010;4.446;2022-07-03T03:22:28;7.95;;;1.40;;
41293;SDS011;27037;52.010;4.446;2022-07-03T03:25:15;5.80;;;1.25;;
41293;SDS011;27037;52.010;4.446;2022-07-03T03:27:40;4.50;;;1.10;;
41293;SDS011;27037;52.010;4.446;2022-07-03T03:30:06;11.32;;;1.50;;
41293;SDS011;27037;52.010;4.446;2022-07-03T03:32:34;7.05;;;1.42;;
41293;SDS011;27037;52.010;4.446;2022-07-03T03:35:01;4.70;;;1.13;;
41293;SDS011;27037;52.010;4.446;2022-07-03T03:37:27;5.80;;;1.48;;
41293;SDS011;27037;52.010;4.446;2022-07-03T03:39:53;4.68;;;1.15;;
41293;SDS011;27037;52.010;4.446;2022-07-03T03:42:19;5.63;;;1.30;;
41293;SDS011;27037;52.010;4.446;2022-07-03T03:44:44;8.95;;;1.48;;
41293;SDS011;27037;52.010;4.446;2022-07-03T03:47:10;5.00;;;1.35;;
41293;SDS011;27037;52.010;4.446;2022-07-03T03:49:36;6.45;;;1.38;;
41293;SDS011;27037;52.010;4.446;2022-07-03T03:52:01;5.10;;;1.42;;
41293;SDS011;27037;52.010;4.446;2022-07-03T03:54:27;6.00;;;1.45;;
41293;SDS011;27037;52.010;4.446;2022-07-03T03:56:53;8.13;;;1.48;;
41293;SDS011;27037;52.010;4.446;2022-07-03T03:59:18;5.63;;;1.35;;
41293;SDS011;27037;52.010;4.446;2022-07-03T04:01:44;5.55;;;1.80;;
41293;SDS011;27037;52.010;4.446;2022-07-03T04:04:11;7.40;;;1.50;;
41293;SDS011;27037;52.010;4.446;2022-07-03T04:06:37;6.38;;;1.52;;
41293;SDS011;27037;52.010;4.446;2022-07-03T04:09:02;6.13;;;1.50;;
41293;SDS011;27037;52.010;4.446;2022-07-03T04:11:28;11.95;;;1.90;;
41293;SDS011;27037;52.010;4.446;2022-07-03T04:13:54;6.13;;;1.75;;
41293;SDS011;27037;52.010;4.446;2022-07-03T04:16:19;6.22;;;1.80;;
41293;SDS011;27037;52.010;4.446;2022-07-03T04:18:45;4.47;;;1.55;;
41293;SDS011;27037;52.010;4.446;2022-07-03T04:21:10;7.68;;;1.70;;
41293;SDS011;27037;52.010;4.446;2022-07-03T04:23:36;7.55;;;1.88;;
41293;SDS011;27037;52.010;4.446;2022-07-03T04:26:04;8.38;;;2.20;;
41293;SDS011;27037;52.010;4.446;2022-07-03T04:28:31;7.00;;;2.17;;
41293;SDS011;27037;52.010;4.446;2022-07-03T04:30:57;11.07;;;1.92;;
41293;SDS011;27037;52.010;4.446;2022-07-03T04:33:23;10.90;;;1.92;;
41293;SDS011;27037;52.010;4.446;2022-07-03T04:35:48;7.25;;;2.00;;
41293;SDS011;27037;52.010;4.446;2022-07-03T04:38:14;7.30;;;2.00;;
41293;SDS011;27037;52.010;4.446;2022-07-03T04:40:39;8.18;;;2.22;;
41293;SDS011;27037;52.010;4.446;2022-07-03T04:43:05;9.40;;;2.05;;
41293;SDS011;27037;52.010;4.446;2022-07-03T04:45:31;9.45;;;2.30;;
41293;SDS011;27037;52.010;4.446;2022-07-03T04:47:56;6.18;;;2.20;;
41293;SDS011;27037;52.010;4.446;2022-07-03T04:50:22;10.65;;;2.78;;
41293;SDS011;27037;52.010;4.446;2022-07-03T04:52:48;8.18;;;2.25;;
41293;SDS011;27037;52.010;4.446;2022-07-03T04:55:13;7.55;;;2.08;;
41293;SDS011;27037;52.010;4.446;2022-07-03T04:57:39;7.10;;;2.20;;
41293;SDS011;27037;52.010;4.446;2022-07-03T05:00:05;12.10;;;2.40;;
41293;SDS011;27037;52.010;4.446;2022-07-03T05:02:31;6.85;;;2.00;;
41293;SDS011;27037;52.010;4.446;2022-07-03T05:04:57;7.95;;;2.20;;
41293;SDS011;27037;52.010;4.446;2022-07-03T05:07:23;4.72;;;1.98;;
41293;SDS011;27037;52.010;4.446;2022-07-03T05:09:48;9.38;;;2.30;;
41293;SDS011;27037;52.010;4.446;2022-07-03T05:12:14;11.07;;;2.25;;
41293;SDS011;27037;52.010;4.446;2022-07-03T05:14:39;10.50;;;2.42;;
41293;SDS011;27037;52.010;4.446;2022-07-03T05:17:05;10.02;;;2.70;;
41293;SDS011;27037;52.010;4.446;2022-07-03T05:19:30;8.10;;;2.40;;
41293;SDS011;27037;52.010;4.446;2022-07-03T05:21:56;8.93;;;2.60;;
41293;SDS011;27037;52.010;4.446;2022-07-03T05:24:22;14.05;;;2.85;;
41293;SDS011;27037;52.010;4.446;2022-07-03T05:26:49;9.60;;;2.50;;
41293;SDS011;27037;52.010;4.446;2022-07-03T05:29:15;8.27;;;2.50;;
41293;SDS011;27037;52.010;4.446;2022-07-03T05:31:40;13.23;;;2.90;;
41293;SDS011;27037;52.010;4.446;2022-07-03T05:34:06;9.65;;;2.72;;
41293;SDS011;27037;52.010;4.446;2022-07-03T05:36:31;12.10;;;2.92;;
41293;SDS011;27037;52.010;4.446;2022-07-03T05:38:57;9.68;;;2.75;;
41293;SDS011;27037;52.010;4.446;2022-07-03T05:41:41;8.43;;;2.70;;
41293;SDS011;27037;52.010;4.446;2022-07-03T05:44:06;9.85;;;2.78;;
41293;SDS011;27037;52.010;4.446;2022-07-03T05:46:32;13.45;;;3.30;;
41293;SDS011;27037;52.010;4.446;2022-07-03T05:48:58;11.73;;;2.75;;
41293;SDS011;27037;52.010;4.446;2022-07-03T05:51:23;12.93;;;3.05;;
41293;SDS011;27037;52.010;4.446;2022-07-03T05:53:49;8.90;;;2.97;;
41293;SDS011;27037;52.010;4.446;2022-07-03T05:56:14;11.77;;;3.95;;
41293;SDS011;27037;52.010;4.446;2022-07-03T05:58:40;11.80;;;3.47;;
41293;SDS011;27037;52.010;4.446;2022-07-03T06:01:06;10.82;;;3.90;;
41293;SDS011;27037;52.010;4.446;2022-07-03T06:03:32;14.77;;;3.53;;
41293;SDS011;27037;52.010;4.446;2022-07-03T06:05:59;12.68;;;3.15;;
41293;SDS011;27037;52.010;4.446;2022-07-03T06:08:24;14.38;;;3.75;;
41293;SDS011;27037;52.010;4.446;2022-07-03T06:10:50;12.35;;;2.92;;
41293;SDS011;27037;52.010;4.446;2022-07-03T06:13:15;10.35;;;3.13;;
41293;SDS011;27037;52.010;4.446;2022-07-03T06:15:41;9.68;;;3.03;;
41293;SDS011;27037;52.010;4.446;2022-07-03T06:18:06;14.02;;;3.00;;
41293;SDS011;27037;52.010;4.446;2022-07-03T06:20:32;10.80;;;3.15;;
41293;SDS011;27037;52.010;4.446;2022-07-03T06:22:58;12.60;;;3.15;;
41293;SDS011;27037;52.010;4.446;2022-07-03T06:25:23;14.85;;;2.85;;
41293;SDS011;27037;52.010;4.446;2022-07-03T06:27:49;11.13;;;3.17;;
41293;SDS011;27037;52.010;4.446;2022-07-03T06:30:14;10.85;;;3.03;;
41293;SDS011;27037;52.010;4.446;2022-07-03T06:32:40;7.43;;;2.90;;
41293;SDS011;27037;52.010;4.446;2022-07-03T06:35:05;12.68;;;2.90;;
41293;SDS011;27037;52.010;4.446;2022-07-03T06:37:31;10.88;;;2.85;;
41293;SDS011;27037;52.010;4.446;2022-07-03T06:39:57;10.13;;;3.05;;
41293;SDS011;27037;52.010;4.446;2022-07-03T06:42:22;11.00;;;2.83;;
41293;SDS011;27037;52.010;4.446;2022-07-03T06:44:48;9.70;;;2.30;;
41293;SDS011;27037;52.010;4.446;2022-07-03T06:47:15;8.70;;;3.28;;
41293;SDS011;27037;52.010;4.446;2022-07-03T06:49:40;8.15;;;2.80;;
41293;SDS011;27037;52.010;4.446;2022-07-03T06:52:08;8.85;;;2.50;;
41293;SDS011;27037;52.010;4.446;2022-07-03T06:54:34;7.38;;;2.33;;
41293;SDS011;27037;52.010;4.446;2022-07-03T06:57:03;11.73;;;2.72;;
41293;SDS011;27037;52.010;4.446;2022-07-03T06:59:29;11.05;;;2.90;;
41293;SDS011;27037;52.010;4.446;2022-07-03T07:01:54;7.60;;;2.40;;
41293;SDS011;27037;52.010;4.446;2022-07-03T07:04:20;11.05;;;2.97;;
41293;SDS011;27037;52.010;4.446;2022-07-03T07:06:45;7.07;;;2.38;;
41293;SDS011;27037;52.010;4.446;2022-07-03T07:09:11;11.07;;;2.70;;
41293;SDS011;27037;52.010;4.446;2022-07-03T07:11:36;9.40;;;2.33;;
41293;SDS011;27037;52.010;4.446;2022-07-03T07:14:02;11.60;;;2.53;;
41293;SDS011;27037;52.010;4.446;2022-07-03T07:16:27;9.45;;;2.50;;
41293;SDS011;27037;52.010;4.446;2022-07-03T07:18:54;13.68;;;2.80;;
41293;SDS011;27037;52.010;4.446;2022-07-03T07:21:20;14.90;;;2.67;;
41293;SDS011;27037;52.010;4.446;2022-07-03T07:23:45;8.90;;;2.42;;
41293;SDS011;27037;52.010;4.446;2022-07-03T07:26:11;9.65;;;2.25;;
41293;SDS011;27037;52.010;4.446;2022-07-03T07:28:37;6.72;;;2.10;;
41293;SDS011;27037;52.010;4.446;2022-07-03T07:31:02;5.00;;;2.30;;
41293;SDS011;27037;52.010;4.446;2022-07-03T07:33:28;5.13;;;2.00;;
41293;SDS011;27037;52.010;4.446;2022-07-03T07:35:54;4.50;;;2.00;;
41293;SDS011;27037;52.010;4.446;2022-07-03T07:38:19;9.65;;;2.10;;
41293;SDS011;27037;52.010;4.446;2022-07-03T07:40:45;9.32;;;2.45;;
41293;SDS011;27037;52.010;4.446;2022-07-03T07:43:11;6.63;;;2.15;;
41293;SDS011;27037;52.010;4.446;2022-07-03T07:45:37;5.97;;;2.20;;
41293;SDS011;27037;52.010;4.446;2022-07-03T07:48:03;7.13;;;2.30;;
41293;SDS011;27037;52.010;4.446;2022-07-03T07:50:29;5.38;;;2.00;;
41293;SDS011;27037;52.010;4.446;2022-07-03T07:52:55;5.10;;;1.70;;
41293;SDS011;27037;52.010;4.446;2022-07-03T07:55:20;5.75;;;1.88;;
41293;SDS011;27037;52.010;4.446;2022-07-03T07:57:47;7.03;;;1.80;;
41293;SDS011;27037;52.010;4.446;2022-07-03T08:00:14;7.65;;;2.03;;
41293;SDS011;27037;52.010;4.446;2022-07-03T08:02:41;5.82;;;1.77;;
41293;SDS011;27037;52.010;4.446;2022-07-03T08:08:02;6.00;;;1.88;;
41293;SDS011;27037;52.010;4.446;2022-07-03T08:10:29;5.78;;;2.05;;
41293;SDS011;27037;52.010;4.446;2022-07-03T08:12:58;5.65;;;1.98;;
41293;SDS011;27037;52.010;4.446;2022-07-03T08:15:23;6.50;;;1.83;;
41293;SDS011;27037;52.010;4.446;2022-07-03T08:17:49;9.63;;;2.13;;
41293;SDS011;27037;52.010;4.446;2022-07-03T08:20:14;3.67;;;1.63;;
41293;SDS011;27037;52.010;4.446;2022-07-03T08:22:40;6.13;;;1.73;;
41293;SDS011;27037;52.010;4.446;2022-07-03T08:25:05;10.32;;;2.35;;
41293;SDS011;27037;52.010;4.446;2022-07-03T08:27:31;6.80;;;2.03;;
41293;SDS011;27037;52.010;4.446;2022-07-03T08:29:57;4.80;;;1.52;;
41293;SDS011;27037;52.010;4.446;2022-07-03T08:32:22;7.68;;;2.08;;
41293;SDS011;27037;52.010;4.446;2022-07-03T08:34:48;5.85;;;1.60;;
41293;SDS011;27037;52.010;4.446;2022-07-03T08:37:13;8.40;;;1.90;;
41293;SDS011;27037;52.010;4.446;2022-07-03T08:39:39;5.43;;;1.67;;
41293;SDS011;27037;52.010;4.446;2022-07-03T08:42:05;7.72;;;2.05;;
41293;SDS011;27037;52.010;4.446;2022-07-03T08:44:31;4.50;;;1.73;;
41293;SDS011;27037;52.010;4.446;2022-07-03T08:47:00;7.57;;;1.70;;
41293;SDS011;27037;52.010;4.446;2022-07-03T08:49:28;4.25;;;1.58;;
41293;SDS011;27037;52.010;4.446;2022-07-03T08:51:54;3.90;;;1.70;;
41293;SDS011;27037;52.010;4.446;2022-07-03T08:54:20;5.55;;;1.60;;
41293;SDS011;27037;52.010;4.446;2022-07-03T08:56:46;5.55;;;1.50;;
41293;SDS011;27037;52.010;4.446;2022-07-03T08:59:12;6.63;;;1.40;;
41293;SDS011;27037;52.010;4.446;2022-07-03T09:01:38;3.78;;;1.30;;
41293;SDS011;27037;52.010;4.446;2022-07-03T09:04:08;5.43;;;1.40;;
41293;SDS011;27037;52.010;4.446;2022-07-03T09:06:36;4.10;;;1.20;;
41293;SDS011;27037;52.010;4.446;2022-07-03T09:09:03;5.78;;;1.40;;
41293;SDS011;27037;52.010;4.446;2022-07-03T09:11:28;5.18;;;1.85;;
41293;SDS011;27037;52.010;4.446;2022-07-03T09:13:55;3.50;;;1.30;;
41293;SDS011;27037;52.010;4.446;2022-07-03T09:16:20;2.15;;;1.05;;
41293;SDS011;27037;52.010;4.446;2022-07-03T09:18:46;2.20;;;1.10;;
41293;SDS011;27037;52.010;4.446;2022-07-03T09:21:12;4.40;;;1.00;;
41293;SDS011;27037;52.010;4.446;2022-07-03T09:23:39;3.72;;;1.30;;
41293;SDS011;27037;52.010;4.446;2022-07-03T09:26:18;4.00;;;1.17;;
41293;SDS011;27037;52.010;4.446;2022-07-03T09:28:45;2.92;;;1.33;;
41293;SDS011;27037;52.010;4.446;2022-07-03T09:31:13;2.22;;;1.00;;
41293;SDS011;27037;52.010;4.446;2022-07-03T09:33:55;3.08;;;1.10;;
41293;SDS011;27037;52.010;4.446;2022-07-03T09:39:14;7.85;;;1.90;;
41293;SDS011;27037;52.010;4.446;2022-07-03T09:44:28;2.83;;;1.08;;
41293;SDS011;27037;52.010;4.446;2022-07-03T09:52:10;4.97;;;1.27;;
41293;SDS011;27037;52.010;4.446;2022-07-03T09:54:50;2.53;;;1.20;;
41293;SDS011;27037;52.010;4.446;2022-07-03T09:57:16;3.75;;;2.05;;
41293;SDS011;27037;52.010;4.446;2022-07-03T09:59:43;3.97;;;1.27;;
41293;SDS011;27037;52.010;4.446;2022-07-03T10:02:09;3.05;;;1.10;;
41293;SDS011;27037;52.010;4.446;2022-07-03T10:04:35;2.58;;;1.23;;
41293;SDS011;27037;52.010;4.446;2022-07-03T10:07:00;2.22;;;1.17;;
41293;SDS011;27037;52.010;4.446;2022-07-03T10:09:29;4.45;;;1.00;;
41293;SDS011;27037;52.010;4.446;2022-07-03T10:11:59;3.25;;;1.15;;
41293;SDS011;27037;52.010;4.446;2022-07-03T10:14:28;1.10;;;1.00;;
41293;SDS011;27037;52.010;4.446;2022-07-03T10:16:55;4.03;;;1.60;;
41293;SDS011;27037;52.010;4.446;2022-07-03T10:19:26;7.32;;;3.58;;
41293;SDS011;27037;52.010;4.446;2022-07-03T10:21:54;2.97;;;1.00;;
41293;SDS011;27037;52.010;4.446;2022-07-03T10:24:22;2.22;;;0.82;;
41293;SDS011;27037;52.010;4.446;2022-07-03T10:26:50;5.03;;;1.20;;
41293;SDS011;27037;52.010;4.446;2022-07-03T10:29:17;5.03;;;1.23;;
41293;SDS011;27037;52.010;4.446;2022-07-03T10:31:48;3.33;;;1.10;;
41293;SDS011;27037;52.010;4.446;2022-07-03T10:34:21;3.53;;;1.02;;
41293;SDS011;27037;52.010;4.446;2022-07-03T10:37:01;1.85;;;0.90;;
41293;SDS011;27037;52.010;4.446;2022-07-03T10:39:40;2.83;;;1.15;;
41293;SDS011;27037;52.010;4.446;2022-07-03T10:42:56;5.30;;;1.10;;
41293;SDS011;27037;52.010;4.446;2022-07-03T10:46:08;1.80;;;0.83;;
41293;SDS011;27037;52.010;4.446;2022-07-03T10:51:20;1.77;;;0.90;;
41293;SDS011;27037;52.010;4.446;2022-07-03T10:53:46;3.65;;;1.08;;
41293;SDS011;27037;52.010;4.446;2022-07-03T10:56:12;3.03;;;1.00;;
41293;SDS011;27037;52.010;4.446;2022-07-03T10:59:01;4.93;;;0.88;;
41293;SDS011;27037;52.010;4.446;2022-07-03T11:01:26;3.80;;;1.10;;
41293;SDS011;27037;52.010;4.446;2022-07-03T11:03:53;2.90;;;1.10;;
41293;SDS011;27037;52.010;4.446;2022-07-03T11:07:08;3.08;;;1.30;;
41293;SDS011;27037;52.010;4.446;2022-07-03T11:09:09;3.55;;;1.52;;
41293;SDS011;27037;52.010;4.446;2022-07-03T11:11:40;6.72;;;3.17;;
41293;SDS011;27037;52.010;4.446;2022-07-03T11:14:21;3.13;;;1.33;;
41293;SDS011;27037;52.010;4.446;2022-07-03T11:16:48;2.75;;;1.10;;
41293;SDS011;27037;52.010;4.446;2022-07-03T11:21:59;1.92;;;1.05;;
41293;SDS011;27037;52.010;4.446;2022-07-03T11:24:39;4.85;;;1.30;;
41293;SDS011;27037;52.010;4.446;2022-07-03T11:27:25;3.70;;;1.13;;
41293;SDS011;27037;52.010;4.446;2022-07-03T11:29:57;2.47;;;1.00;;
41293;SDS011;27037;52.010;4.446;2022-07-03T11:36:13;3.45;;;0.90;;
41293;SDS011;27037;52.010;4.446;2022-07-03T11:38:07;5.65;;;1.10;;
41293;SDS011;27037;52.010;4.446;2022-07-03T11:40:33;4.35;;;1.27;;
41293;SDS011;27037;52.010;4.446;2022-07-03T11:43:01;2.72;;;1.10;;
41293;SDS011;27037;52.010;4.446;2022-07-03T11:45:29;2.63;;;0.90;;
41293;SDS011;27037;52.010;4.446;2022-07-03T11:47:56;3.47;;;1.10;;
41293;SDS011;27037;52.010;4.446;2022-07-03T11:50:35;3.65;;;1.02;;
41293;SDS011;27037;52.010;4.446;2022-07-03T11:53:14;2.90;;;1.13;;
41293;SDS011;27037;52.010;4.446;2022-07-03T11:56:04;3.88;;;1.20;;
41293;SDS011;27037;52.010;4.446;2022-07-03T11:58:49;2.33;;;0.90;;
41293;SDS011;27037;52.010;4.446;2022-07-03T12:04:12;5.63;;;1.10;;
41293;SDS011;27037;52.010;4.446;2022-07-03T12:06:50;3.55;;;1.15;;
41293;SDS011;27037;52.010;4.446;2022-07-03T12:09:24;6.15;;;1.08;;
41293;SDS011;27037;52.010;4.446;2022-07-03T12:12:07;3.60;;;1.30;;
41293;SDS011;27037;52.010;4.446;2022-07-03T12:14:47;4.72;;;1.17;;
41293;SDS011;27037;52.010;4.446;2022-07-03T12:17:14;4.43;;;1.10;;
41293;SDS011;27037;52.010;4.446;2022-07-03T12:19:44;7.18;;;2.13;;
41293;SDS011;27037;52.010;4.446;2022-07-03T12:25:01;5.68;;;1.20;;
41293;SDS011;27037;52.010;4.446;2022-07-03T12:27:29;2.63;;;1.10;;
41293;SDS011;27037;52.010;4.446;2022-07-03T12:29:57;3.20;;;1.10;;
41293;SDS011;27037;52.010;4.446;2022-07-03T12:32:23;2.33;;;1.00;;
41293;SDS011;27037;52.010;4.446;2022-07-03T12:34:49;2.90;;;1.08;;
41293;SDS011;27037;52.010;4.446;2022-07-03T12:37:15;1.50;;;0.90;;
41293;SDS011;27037;52.010;4.446;2022-07-03T12:44:53;3.95;;;1.40;;
41293;SDS011;27037;52.010;4.446;2022-07-03T12:47:23;2.65;;;1.15;;
41293;SDS011;27037;52.010;4.446;2022-07-03T12:49:56;3.83;;;1.30;;
41293;SDS011;27037;52.010;4.446;2022-07-03T12:52:22;3.05;;;1.00;;
41293;SDS011;27037;52.010;4.446;2022-07-03T12:54:48;5.80;;;1.13;;
41293;SDS011;27037;52.010;4.446;2022-07-03T12:57:14;5.28;;;1.10;;
41293;SDS011;27037;52.010;4.446;2022-07-03T13:00:02;5.85;;;1.20;;
41293;SDS011;27037;52.010;4.446;2022-07-03T13:02:33;5.65;;;1.25;;
41293;SDS011;27037;52.010;4.446;2022-07-03T13:04:59;4.07;;;1.10;;
41293;SDS011;27037;52.010;4.446;2022-07-03T13:07:29;4.90;;;1.50;;
41293;SDS011;27037;52.010;4.446;2022-07-03T13:09:59;6.43;;;1.13;;
41293;SDS011;27037;52.010;4.446;2022-07-03T13:12:25;4.30;;;1.65;;
41293;SDS011;27037;52.010;4.446;2022-07-03T13:14:58;4.43;;;1.27;;
41293;SDS011;27037;52.010;4.446;2022-07-03T13:20:15;3.38;;;1.08;;
41293;SDS011;27037;52.010;4.446;2022-07-03T13:22:40;3.15;;;1.23;;
41293;SDS011;27037;52.010;4.446;2022-07-03T13:25:06;3.88;;;1.40;;
41293;SDS011;27037;52.010;4.446;2022-07-03T13:27:32;6.30;;;1.40;;
41293;SDS011;27037;52.010;4.446;2022-07-03T13:29:57;3.80;;;1.38;;
41293;SDS011;27037;52.010;4.446;2022-07-03T13:32:23;5.63;;;1.50;;
41293;SDS011;27037;52.010;4.446;2022-07-03T13:34:48;5.72;;;1.63;;
41293;SDS011;27037;52.010;4.446;2022-07-03T13:37:14;5.03;;;1.30;;
41293;SDS011;27037;52.010;4.446;2022-07-03T13:39:39;3.08;;;1.17;;
41293;SDS011;27037;52.010;4.446;2022-07-03T13:42:05;5.45;;;1.40;;
41293;SDS011;27037;52.010;4.446;2022-07-03T13:44:35;9.38;;;2.00;;
41293;SDS011;27037;52.010;4.446;2022-07-03T13:47:01;7.60;;;2.10;;
41293;SDS011;27037;52.010;4.446;2022-07-03T13:49:27;5.13;;;1.70;;
41293;SDS011;27037;52.010;4.446;2022-07-03T13:51:53;4.97;;;1.70;;
41293;SDS011;27037;52.010;4.446;2022-07-03T13:54:18;4.43;;;1.48;;
41293;SDS011;27037;52.010;4.446;2022-07-03T13:56:44;3.67;;;1.30;;
41293;SDS011;27037;52.010;4.446;2022-07-03T13:59:10;5.13;;;1.27;;
41293;SDS011;27037;52.010;4.446;2022-07-03T14:01:37;5.95;;;1.75;;
41293;SDS011;27037;52.010;4.446;2022-07-03T14:04:05;4.63;;;1.20;;
41293;SDS011;27037;52.010;4.446;2022-07-03T14:06:31;4.43;;;1.20;;
41293;SDS011;27037;52.010;4.446;2022-07-03T14:08:56;2.45;;;1.10;;
41293;SDS011;27037;52.010;4.446;2022-07-03T14:11:22;5.57;;;1.20;;
41293;SDS011;27037;52.010;4.446;2022-07-03T14:13:47;3.53;;;1.13;;
41293;SDS011;27037;52.010;4.446;2022-07-03T14:16:13;5.30;;;1.40;;
41293;SDS011;27037;52.010;4.446;2022-07-03T14:18:39;6.88;;;1.35;;
41293;SDS011;27037;52.010;4.446;2022-07-03T14:21:04;5.20;;;1.60;;
41293;SDS011;27037;52.010;4.446;2022-07-03T14:23:33;6.28;;;1.40;;
41293;SDS011;27037;52.010;4.446;2022-07-03T14:25:59;2.45;;;1.30;;
41293;SDS011;27037;52.010;4.446;2022-07-03T14:28:24;6.22;;;1.50;;
41293;SDS011;27037;52.010;4.446;2022-07-03T14:31:09;4.90;;;1.60;;
41293;SDS011;27037;52.010;4.446;2022-07-03T14:33:53;4.00;;;1.10;;
41293;SDS011;27037;52.010;4.446;2022-07-03T14:36:20;4.18;;;1.20;;
41293;SDS011;27037;52.010;4.446;2022-07-03T14:38:46;17.00;;;5.50;;
41293;SDS011;27037;52.010;4.446;2022-07-03T14:41:12;4.53;;;1.40;;
41293;SDS011;27037;52.010;4.446;2022-07-03T14:43:38;7.22;;;1.40;;
41293;SDS011;27037;52.010;4.446;2022-07-03T14:46:06;5.43;;;1.63;;
41293;SDS011;27037;52.010;4.446;2022-07-03T14:48:31;4.88;;;1.42;;
41293;SDS011;27037;52.010;4.446;2022-07-03T14:50:57;4.72;;;1.30;;
41293;SDS011;27037;52.010;4.446;2022-07-03T14:53:22;5.20;;;1.30;;
41293;SDS011;27037;52.010;4.446;2022-07-03T14:55:48;5.43;;;1.30;;
41293;SDS011;27037;52.010;4.446;2022-07-03T14:58:18;7.10;;;1.65;;
41293;SDS011;27037;52.010;4.446;2022-07-03T15:00:50;6.70;;;1.02;;
41293;SDS011;27037;52.010;4.446;2022-07-03T15:03:55;4.00;;;1.20;;
41293;SDS011;27037;52.010;4.446;2022-07-03T15:06:18;5.85;;;1.13;;
41293;SDS011;27037;52.010;4.446;2022-07-03T15:09:20;9.65;;;1.35;;
41293;SDS011;27037;52.010;4.446;2022-07-03T15:14:33;5.72;;;1.20;;
41293;SDS011;27037;52.010;4.446;2022-07-03T15:17:04;4.30;;;1.20;;
41293;SDS011;27037;52.010;4.446;2022-07-03T15:19:30;6.15;;;1.08;;
41293;SDS011;27037;52.010;4.446;2022-07-03T15:22:00;4.78;;;1.15;;
41293;SDS011;27037;52.010;4.446;2022-07-03T15:24:28;4.88;;;1.23;;
41293;SDS011;27037;52.010;4.446;2022-07-03T15:26:56;5.75;;;1.05;;
41293;SDS011;27037;52.010;4.446;2022-07-03T15:29:22;6.82;;;1.45;;
41293;SDS011;27037;52.010;4.446;2022-07-03T15:31:48;5.20;;;1.20;;
41293;SDS011;27037;52.010;4.446;2022-07-03T15:34:14;4.88;;;1.00;;
41293;SDS011;27037;52.010;4.446;2022-07-03T15:36:58;7.50;;;1.17;;
41293;SDS011;27037;52.010;4.446;2022-07-03T15:39:54;4.18;;;0.80;;
41293;SDS011;27037;52.010;4.446;2022-07-03T15:42:29;7.10;;;1.20;;
41293;SDS011;27037;52.010;4.446;2022-07-03T15:51:00;5.88;;;1.30;;
41293;SDS011;27037;52.010;4.446;2022-07-03T15:53:41;4.70;;;1.50;;
41293;SDS011;27037;52.010;4.446;2022-07-03T15:56:10;4.45;;;1.10;;
41293;SDS011;27037;52.010;4.446;2022-07-03T15:58:38;5.97;;;1.80;;
41293;SDS011;27037;52.010;4.446;2022-07-03T16:01:11;10.38;;;1.58;;